Terminal Aerodrome Forecast
Issued by NWS

Home | Current Version | Previous Version | Text Only | Print | Product List | Glossary Off
Versions: 1 2 3 4 5 6 7 8 9 10 11 12 13 14 15

424
FTUS43 KGRB 050827 AAA
TAFMTW
TAF AMD
KMTW 050827Z 0508/0606 27004KT P6SM SCT020 BKN040
      TEMPO 0508/0512 -SHSN BKN020
     FM051200 28005KT P6SM SCT025 BKN035
     FM051500 31007KT P6SM SCT035
     FM052100 24005KT P6SM BKN070=

USA.gov is the U.S. government's official web portal to all federal, state and local government web resources and services.